BZN168 LOWW-LHBP
Flight info
| Callsign | BZN168 |
|---|---|
| Flight time | N/A |
| Altitude | 23000 |
| Route | ADAMA Z647 ANEXA |
| Aircraft | B738/M-SDE2E3FGHIRWXY/LB1 |
Departure
| Time | 2026-05-07 09:05 |
|---|---|
| Airport | Vienna International Airport (LOWW) |
Arrival
| Time | N/A |
|---|---|
| Airport | Budapest Liszt Ferenc International Airport (LHBP) |
| Time | Latitude | Longitude | Altitude | Speed | Heading |
|---|---|---|---|---|---|
| 2026-05-07 08:16 | 48.11670 | 16.56894 | 624 ft | 0 kts | 24° |
| 2026-05-07 08:56 | 48.11663 | 16.56889 | 608 ft | 2 kts | 24° |
| 2026-05-07 08:56 | 48.11648 | 16.56879 | 624 ft | 2 kts | 24° |
| 2026-05-07 08:56 | 48.11633 | 16.56869 | 615 ft | 2 kts | 28° |
| 2026-05-07 08:57 | 48.11619 | 16.56856 | 620 ft | 2 kts | 41° |
| 2026-05-07 08:57 | 48.11610 | 16.56836 | 622 ft | 2 kts | 97° |
| 2026-05-07 08:57 | 48.11613 | 16.56812 | 618 ft | 2 kts | 107° |
| 2026-05-07 08:57 | 48.11615 | 16.56804 | 619 ft | 0 kts | 115° |
| 2026-05-07 08:59 | 48.11614 | 16.56807 | 619 ft | 1 kts | 115° |
| 2026-05-07 08:59 | 48.11609 | 16.56822 | 619 ft | 2 kts | 115° |
| 2026-05-07 09:00 | 48.11602 | 16.56846 | 608 ft | 3 kts | 115° |
| 2026-05-07 09:00 | 48.11592 | 16.56879 | 611 ft | 4 kts | 114° |
| 2026-05-07 09:00 | 48.11569 | 16.56910 | 617 ft | 5 kts | 155° |
| 2026-05-07 09:00 | 48.11531 | 16.56912 | 608 ft | 6 kts | 191° |
| 2026-05-07 09:01 | 48.11487 | 16.56889 | 610 ft | 7 kts | 202° |
| 2026-05-07 09:01 | 48.11438 | 16.56891 | 614 ft | 7 kts | 143° |
| 2026-05-07 09:01 | 48.11406 | 16.56959 | 611 ft | 9 kts | 121° |
| 2026-05-07 09:01 | 48.11377 | 16.57045 | 615 ft | 10 kts | 115° |
| 2026-05-07 09:02 | 48.11346 | 16.57144 | 613 ft | 11 kts | 115° |
| 2026-05-07 09:02 | 48.11313 | 16.57252 | 621 ft | 12 kts | 113° |
| 2026-05-07 09:02 | 48.11278 | 16.57373 | 612 ft | 13 kts | 115° |
| 2026-05-07 09:02 | 48.11231 | 16.57495 | 616 ft | 14 kts | 118° |
| 2026-05-07 09:03 | 48.11202 | 16.57578 | 612 ft | 1 kts | 123° |
| 2026-05-07 09:03 | 48.11195 | 16.57589 | 616 ft | 2 kts | 138° |
| 2026-05-07 09:03 | 48.11164 | 16.57604 | 617 ft | 9 kts | 180° |
| 2026-05-07 09:03 | 48.11100 | 16.57550 | 609 ft | 12 kts | 213° |
| 2026-05-07 09:04 | 48.11030 | 16.57494 | 609 ft | 11 kts | 207° |
| 2026-05-07 09:04 | 48.10974 | 16.57448 | 626 ft | 4 kts | 217° |
| 2026-05-07 09:04 | 48.10962 | 16.57408 | 612 ft | 4 kts | 263° |
| 2026-05-07 09:04 | 48.10969 | 16.57362 | 621 ft | 6 kts | 291° |
| 2026-05-07 09:05 | 48.11042 | 16.57142 | 621 ft | 55 kts | 297° |
| 2026-05-07 09:05 | 48.11343 | 16.56205 | 611 ft | 142 kts | 296° |
| 2026-05-07 09:05 | 48.11874 | 16.54671 | 1139 ft | 177 kts | 296° |
| 2026-05-07 09:05 | 48.12382 | 16.53015 | 2321 ft | 178 kts | 288° |
| 2026-05-07 09:06 | 48.12356 | 16.51120 | 3007 ft | 190 kts | 245° |
| 2026-05-07 09:06 | 48.11368 | 16.49800 | 3761 ft | 198 kts | 208° |
| 2026-05-07 09:06 | 48.10117 | 16.48950 | 4488 ft | 198 kts | 200° |
| 2026-05-07 09:06 | 48.08764 | 16.48889 | 5082 ft | 200 kts | 156° |
| 2026-05-07 09:07 | 48.07780 | 16.50309 | 5697 ft | 204 kts | 115° |
| 2026-05-07 09:07 | 48.07285 | 16.52086 | 6330 ft | 205 kts | 115° |
| 2026-05-07 09:07 | 48.06682 | 16.54162 | 6985 ft | 208 kts | 116° |
| 2026-05-07 09:08 | 48.05603 | 16.57823 | 8092 ft | 214 kts | 117° |
| 2026-05-07 09:08 | 48.04992 | 16.59868 | 8689 ft | 217 kts | 117° |
| 2026-05-07 09:08 | 48.04368 | 16.61943 | 9287 ft | 220 kts | 118° |
| 2026-05-07 09:08 | 48.03732 | 16.64045 | 9890 ft | 224 kts | 118° |
| 2026-05-07 09:09 | 48.03087 | 16.66169 | 10440 ft | 226 kts | 119° |
| 2026-05-07 09:09 | 48.03015 | 16.66404 | 10501 ft | 227 kts | 119° |
| 2026-05-07 09:09 | 48.02383 | 16.68476 | 11019 ft | 229 kts | 119° |
| 2026-05-07 09:09 | 48.01717 | 16.70651 | 11574 ft | 231 kts | 120° |
| 2026-05-07 09:10 | 48.01116 | 16.72610 | 12056 ft | 234 kts | 120° |
| 2026-05-07 09:10 | 48.00434 | 16.74830 | 12598 ft | 236 kts | 120° |
| 2026-05-07 09:10 | 47.99891 | 16.76861 | 13063 ft | 243 kts | 109° |
| 2026-05-07 09:10 | 47.99705 | 16.79390 | 13586 ft | 251 kts | 93° |
| 2026-05-07 09:11 | 47.99680 | 16.81388 | 13961 ft | 251 kts | 100° |
| 2026-05-07 09:11 | 47.99503 | 16.83811 | 14415 ft | 251 kts | 103° |
| 2026-05-07 09:11 | 47.99276 | 16.86409 | 14887 ft | 253 kts | 103° |
| 2026-05-07 09:11 | 47.99049 | 16.88988 | 15369 ft | 255 kts | 104° |
| 2026-05-07 09:12 | 47.98816 | 16.91657 | 15654 ft | 267 kts | 103° |
| 2026-05-07 09:12 | 47.98572 | 16.94492 | 15794 ft | 284 kts | 103° |
| 2026-05-07 09:12 | 47.98356 | 16.97046 | 15903 ft | 297 kts | 103° |
| 2026-05-07 09:12 | 47.98096 | 17.00182 | 16016 ft | 311 kts | 102° |
| 2026-05-07 09:13 | 47.97829 | 17.03457 | 16124 ft | 324 kts | 102° |
| 2026-05-07 09:13 | 47.97560 | 17.06813 | 16288 ft | 333 kts | 102° |
| 2026-05-07 09:13 | 47.97287 | 17.10257 | 16599 ft | 335 kts | 102° |
| 2026-05-07 09:13 | 47.97015 | 17.13713 | 16968 ft | 336 kts | 102° |
| 2026-05-07 09:14 | 47.96850 | 17.15793 | 17171 ft | 337 kts | 102° |
| 2026-05-07 09:14 | 47.96737 | 17.17217 | 17202 ft | 341 kts | 102° |
| 2026-05-07 09:14 | 47.96450 | 17.20780 | 17238 ft | 350 kts | 102° |
| 2026-05-07 09:14 | 47.96189 | 17.24014 | 17292 ft | 357 kts | 102° |
| 2026-05-07 09:15 | 47.96092 | 17.25216 | 17311 ft | 359 kts | 102° |
| 2026-05-07 09:15 | 47.95924 | 17.27294 | 17343 ft | 362 kts | 102° |
| 2026-05-07 09:15 | 47.95660 | 17.30558 | 17383 ft | 367 kts | 102° |
| 2026-05-07 09:15 | 47.95445 | 17.33198 | 17408 ft | 371 kts | 102° |
| 2026-05-07 09:16 | 47.95395 | 17.33819 | 17414 ft | 372 kts | 102° |
| 2026-05-07 09:16 | 47.95082 | 17.37669 | 17475 ft | 375 kts | 102° |
| 2026-05-07 09:17 | 47.94819 | 17.40926 | 17837 ft | 368 kts | 102° |
| 2026-05-07 09:17 | 47.94519 | 17.44631 | 18241 ft | 361 kts | 102° |
| 2026-05-07 09:17 | 47.94214 | 17.48368 | 18607 ft | 356 kts | 103° |
| 2026-05-07 09:17 | 47.93924 | 17.51898 | 18960 ft | 351 kts | 103° |
| 2026-05-07 09:18 | 47.93695 | 17.54656 | 19239 ft | 348 kts | 103° |
| 2026-05-07 09:18 | 47.93494 | 17.57071 | 19491 ft | 345 kts | 103° |
| 2026-05-07 09:18 | 47.93157 | 17.61094 | 19919 ft | 341 kts | 103° |
| 2026-05-07 09:18 | 47.92863 | 17.64593 | 20275 ft | 338 kts | 103° |
| 2026-05-07 09:19 | 47.92836 | 17.64915 | 20310 ft | 338 kts | 103° |
| 2026-05-07 09:19 | 47.92557 | 17.68212 | 20685 ft | 335 kts | 103° |
| 2026-05-07 09:19 | 47.92267 | 17.71639 | 21083 ft | 332 kts | 103° |
| 2026-05-07 09:19 | 47.91978 | 17.75042 | 21482 ft | 329 kts | 104° |
| 2026-05-07 09:20 | 47.91822 | 17.76869 | 21714 ft | 328 kts | 104° |
| 2026-05-07 09:20 | 47.91546 | 17.80093 | 22098 ft | 325 kts | 104° |
| 2026-05-07 09:20 | 47.91261 | 17.83417 | 22512 ft | 322 kts | 104° |
| 2026-05-07 09:20 | 47.90978 | 17.86711 | 22923 ft | 320 kts | 104° |
| 2026-05-07 09:21 | 47.90691 | 17.90004 | 22957 ft | 327 kts | 104° |
| 2026-05-07 09:21 | 47.90399 | 17.93339 | 22987 ft | 332 kts | 104° |
| 2026-05-07 09:21 | 47.90126 | 17.96450 | 22989 ft | 338 kts | 104° |
| 2026-05-07 09:21 | 47.89826 | 17.99871 | 22993 ft | 343 kts | 104° |
| 2026-05-07 09:22 | 47.89515 | 18.03421 | 22991 ft | 348 kts | 104° |
| 2026-05-07 09:22 | 47.89407 | 18.04647 | 22988 ft | 350 kts | 104° |
| 2026-05-07 09:22 | 47.89145 | 18.07628 | 22964 ft | 353 kts | 103° |
| 2026-05-07 09:23 | 47.88826 | 18.11264 | 22981 ft | 356 kts | 103° |
| 2026-05-07 09:23 | 47.88551 | 18.14388 | 22983 ft | 358 kts | 103° |